sensor_id;sensor_type;location;lat;lon;timestamp;P1;durP1;ratioP1;P2;durP2;ratioP2
9150;SDS011;4610;50.006;7.490;2023-03-17T00:01:19;6.57;;;2.93;;
9150;SDS011;4610;50.006;7.490;2023-03-17T00:03:46;10.33;;;6.80;;
9150;SDS011;4610;50.006;7.490;2023-03-17T00:06:16;9.00;;;3.47;;
9150;SDS011;4610;50.006;7.490;2023-03-17T00:08:44;3.23;;;1.93;;
9150;SDS011;4610;50.006;7.490;2023-03-17T00:11:13;3.27;;;2.10;;
9150;SDS011;4610;50.006;7.490;2023-03-17T00:13:41;5.73;;;2.10;;
9150;SDS011;4610;50.006;7.490;2023-03-17T00:16:11;3.47;;;1.97;;
9150;SDS011;4610;50.006;7.490;2023-03-17T00:18:40;2.77;;;1.87;;
9150;SDS011;4610;50.006;7.490;2023-03-17T00:21:09;5.90;;;2.77;;
9150;SDS011;4610;50.006;7.490;2023-03-17T00:23:37;3.70;;;2.70;;
9150;SDS011;4610;50.006;7.490;2023-03-17T00:26:04;7.30;;;2.53;;
9150;SDS011;4610;50.006;7.490;2023-03-17T00:28:33;2.80;;;1.80;;
9150;SDS011;4610;50.006;7.490;2023-03-17T00:31:00;3.40;;;1.87;;
9150;SDS011;4610;50.006;7.490;2023-03-17T00:33:31;2.33;;;1.90;;
9150;SDS011;4610;50.006;7.490;2023-03-17T00:36:01;2.97;;;1.93;;
9150;SDS011;4610;50.006;7.490;2023-03-17T00:38:28;3.63;;;1.90;;
9150;SDS011;4610;50.006;7.490;2023-03-17T00:40:55;3.13;;;2.17;;
9150;SDS011;4610;50.006;7.490;2023-03-17T00:43:22;3.57;;;2.00;;
9150;SDS011;4610;50.006;7.490;2023-03-17T00:45:50;2.93;;;2.10;;
9150;SDS011;4610;50.006;7.490;2023-03-17T00:48:17;3.83;;;2.23;;
9150;SDS011;4610;50.006;7.490;2023-03-17T00:50:46;5.27;;;2.20;;
9150;SDS011;4610;50.006;7.490;2023-03-17T00:53:15;3.40;;;2.20;;
9150;SDS011;4610;50.006;7.490;2023-03-17T00:55:43;3.13;;;2.00;;
9150;SDS011;4610;50.006;7.490;2023-03-17T00:58:12;2.87;;;1.90;;
9150;SDS011;4610;50.006;7.490;2023-03-17T01:00:42;3.10;;;2.10;;
9150;SDS011;4610;50.006;7.490;2023-03-17T01:03:11;7.37;;;2.20;;
9150;SDS011;4610;50.006;7.490;2023-03-17T01:05:38;3.13;;;2.40;;
9150;SDS011;4610;50.006;7.490;2023-03-17T01:08:07;4.23;;;3.00;;
9150;SDS011;4610;50.006;7.490;2023-03-17T01:10:34;7.43;;;2.77;;
9150;SDS011;4610;50.006;7.490;2023-03-17T01:13:01;4.30;;;2.70;;
9150;SDS011;4610;50.006;7.490;2023-03-17T01:15:29;3.07;;;2.67;;
9150;SDS011;4610;50.006;7.490;2023-03-17T01:17:57;3.63;;;2.53;;
9150;SDS011;4610;50.006;7.490;2023-03-17T01:20:27;3.90;;;2.80;;
9150;SDS011;4610;50.006;7.490;2023-03-17T01:22:54;3.30;;;2.87;;
9150;SDS011;4610;50.006;7.490;2023-03-17T01:25:21;3.87;;;3.00;;
9150;SDS011;4610;50.006;7.490;2023-03-17T01:27:48;3.37;;;2.83;;
9150;SDS011;4610;50.006;7.490;2023-03-17T01:30:23;4.67;;;2.60;;
9150;SDS011;4610;50.006;7.490;2023-03-17T01:32:52;4.53;;;2.77;;
9150;SDS011;4610;50.006;7.490;2023-03-17T01:35:19;2.83;;;2.10;;
9150;SDS011;4610;50.006;7.490;2023-03-17T01:37:50;2.30;;;1.97;;
9150;SDS011;4610;50.006;7.490;2023-03-17T01:40:17;3.90;;;1.83;;
9150;SDS011;4610;50.006;7.490;2023-03-17T01:42:47;3.73;;;2.33;;
9150;SDS011;4610;50.006;7.490;2023-03-17T01:48:21;4.17;;;2.73;;
9150;SDS011;4610;50.006;7.490;2023-03-17T01:50:49;4.43;;;2.73;;
9150;SDS011;4610;50.006;7.490;2023-03-17T01:53:20;3.97;;;2.80;;
9150;SDS011;4610;50.006;7.490;2023-03-17T01:55:48;3.73;;;2.80;;
9150;SDS011;4610;50.006;7.490;2023-03-17T01:58:17;5.53;;;3.13;;
9150;SDS011;4610;50.006;7.490;2023-03-17T02:00:48;6.23;;;3.50;;
9150;SDS011;4610;50.006;7.490;2023-03-17T02:03:15;5.37;;;3.40;;
9150;SDS011;4610;50.006;7.490;2023-03-17T02:05:43;7.07;;;3.63;;
9150;SDS011;4610;50.006;7.490;2023-03-17T02:08:13;5.10;;;3.43;;
9150;SDS011;4610;50.006;7.490;2023-03-17T02:10:43;5.73;;;3.53;;
9150;SDS011;4610;50.006;7.490;2023-03-17T02:13:13;5.53;;;3.40;;
9150;SDS011;4610;50.006;7.490;2023-03-17T02:15:42;7.27;;;3.53;;
9150;SDS011;4610;50.006;7.490;2023-03-17T02:18:10;4.77;;;3.30;;
9150;SDS011;4610;50.006;7.490;2023-03-17T02:23:53;5.57;;;3.43;;
9150;SDS011;4610;50.006;7.490;2023-03-17T02:26:21;6.03;;;3.70;;
9150;SDS011;4610;50.006;7.490;2023-03-17T02:28:50;4.83;;;3.13;;
9150;SDS011;4610;50.006;7.490;2023-03-17T02:31:17;12.07;;;3.30;;
9150;SDS011;4610;50.006;7.490;2023-03-17T02:33:45;7.13;;;3.93;;
9150;SDS011;4610;50.006;7.490;2023-03-17T02:36:11;5.87;;;3.40;;
9150;SDS011;4610;50.006;7.490;2023-03-17T02:38:40;6.00;;;3.40;;
9150;SDS011;4610;50.006;7.490;2023-03-17T02:41:06;6.87;;;3.07;;
9150;SDS011;4610;50.006;7.490;2023-03-17T02:43:33;4.60;;;2.73;;
9150;SDS011;4610;50.006;7.490;2023-03-17T02:46:01;4.80;;;2.87;;
9150;SDS011;4610;50.006;7.490;2023-03-17T02:48:28;4.20;;;2.63;;
9150;SDS011;4610;50.006;7.490;2023-03-17T02:50:56;5.13;;;3.30;;
9150;SDS011;4610;50.006;7.490;2023-03-17T02:53:22;6.93;;;3.63;;
9150;SDS011;4610;50.006;7.490;2023-03-17T02:55:51;6.27;;;3.53;;
9150;SDS011;4610;50.006;7.490;2023-03-17T02:58:17;6.30;;;3.60;;
9150;SDS011;4610;50.006;7.490;2023-03-17T03:00:44;5.93;;;3.73;;
9150;SDS011;4610;50.006;7.490;2023-03-17T03:03:12;6.77;;;3.60;;
9150;SDS011;4610;50.006;7.490;2023-03-17T03:05:40;5.37;;;3.23;;
9150;SDS011;4610;50.006;7.490;2023-03-17T03:08:06;8.00;;;4.47;;
9150;SDS011;4610;50.006;7.490;2023-03-17T03:10:33;7.73;;;3.50;;
9150;SDS011;4610;50.006;7.490;2023-03-17T03:13:01;9.53;;;4.13;;
9150;SDS011;4610;50.006;7.490;2023-03-17T03:15:28;8.23;;;4.60;;
9150;SDS011;4610;50.006;7.490;2023-03-17T03:17:55;5.47;;;3.63;;
9150;SDS011;4610;50.006;7.490;2023-03-17T03:20:21;6.53;;;3.47;;
9150;SDS011;4610;50.006;7.490;2023-03-17T03:22:48;5.43;;;3.33;;
9150;SDS011;4610;50.006;7.490;2023-03-17T03:25:15;4.30;;;2.57;;
9150;SDS011;4610;50.006;7.490;2023-03-17T03:27:42;3.10;;;2.30;;
9150;SDS011;4610;50.006;7.490;2023-03-17T03:30:10;5.97;;;2.40;;
9150;SDS011;4610;50.006;7.490;2023-03-17T03:32:38;4.23;;;2.70;;
9150;SDS011;4610;50.006;7.490;2023-03-17T03:35:05;3.97;;;2.87;;
9150;SDS011;4610;50.006;7.490;2023-03-17T03:37:33;3.87;;;2.70;;
9150;SDS011;4610;50.006;7.490;2023-03-17T03:40:00;3.07;;;2.43;;
9150;SDS011;4610;50.006;7.490;2023-03-17T03:42:26;3.20;;;2.60;;
9150;SDS011;4610;50.006;7.490;2023-03-17T03:44:53;2.97;;;2.30;;
9150;SDS011;4610;50.006;7.490;2023-03-17T03:47:21;4.23;;;2.40;;
9150;SDS011;4610;50.006;7.490;2023-03-17T03:49:48;5.10;;;2.70;;
9150;SDS011;4610;50.006;7.490;2023-03-17T03:52:15;5.87;;;2.73;;
9150;SDS011;4610;50.006;7.490;2023-03-17T03:54:41;3.60;;;2.67;;
9150;SDS011;4610;50.006;7.490;2023-03-17T03:57:08;4.13;;;2.97;;
9150;SDS011;4610;50.006;7.490;2023-03-17T03:59:35;6.00;;;3.20;;
9150;SDS011;4610;50.006;7.490;2023-03-17T04:02:02;5.67;;;3.30;;
9150;SDS011;4610;50.006;7.490;2023-03-17T04:04:32;4.33;;;3.10;;
9150;SDS011;4610;50.006;7.490;2023-03-17T04:06:59;5.10;;;3.13;;
9150;SDS011;4610;50.006;7.490;2023-03-17T04:09:26;5.00;;;3.30;;
9150;SDS011;4610;50.006;7.490;2023-03-17T04:11:53;9.53;;;3.03;;
9150;SDS011;4610;50.006;7.490;2023-03-17T04:14:20;4.70;;;3.30;;
9150;SDS011;4610;50.006;7.490;2023-03-17T04:16:46;4.10;;;3.17;;
9150;SDS011;4610;50.006;7.490;2023-03-17T04:19:13;5.17;;;3.10;;
9150;SDS011;4610;50.006;7.490;2023-03-17T04:21:41;5.63;;;2.80;;
9150;SDS011;4610;50.006;7.490;2023-03-17T04:24:08;3.87;;;2.80;;
9150;SDS011;4610;50.006;7.490;2023-03-17T04:26:35;6.97;;;2.47;;
9150;SDS011;4610;50.006;7.490;2023-03-17T04:29:01;2.70;;;2.20;;
9150;SDS011;4610;50.006;7.490;2023-03-17T04:31:28;3.17;;;2.30;;
9150;SDS011;4610;50.006;7.490;2023-03-17T04:33:55;3.57;;;2.57;;
9150;SDS011;4610;50.006;7.490;2023-03-17T04:36:22;4.13;;;2.50;;
9150;SDS011;4610;50.006;7.490;2023-03-17T04:38:50;3.53;;;2.67;;
9150;SDS011;4610;50.006;7.490;2023-03-17T04:41:17;3.27;;;2.40;;
9150;SDS011;4610;50.006;7.490;2023-03-17T04:43:45;4.10;;;2.33;;
9150;SDS011;4610;50.006;7.490;2023-03-17T04:46:11;4.43;;;2.27;;
9150;SDS011;4610;50.006;7.490;2023-03-17T04:48:39;11.33;;;3.20;;
9150;SDS011;4610;50.006;7.490;2023-03-17T04:51:06;3.93;;;2.60;;
9150;SDS011;4610;50.006;7.490;2023-03-17T04:53:33;3.87;;;2.33;;
9150;SDS011;4610;50.006;7.490;2023-03-17T04:56:01;3.37;;;2.60;;
9150;SDS011;4610;50.006;7.490;2023-03-17T04:58:28;4.40;;;2.73;;
9150;SDS011;4610;50.006;7.490;2023-03-17T05:00:54;3.23;;;2.80;;
9150;SDS011;4610;50.006;7.490;2023-03-17T05:03:21;4.97;;;2.60;;
9150;SDS011;4610;50.006;7.490;2023-03-17T05:05:49;3.13;;;2.23;;
9150;SDS011;4610;50.006;7.490;2023-03-17T05:08:16;6.13;;;1.87;;
9150;SDS011;4610;50.006;7.490;2023-03-17T05:10:44;3.23;;;2.23;;
9150;SDS011;4610;50.006;7.490;2023-03-17T05:13:12;3.40;;;2.50;;
9150;SDS011;4610;50.006;7.490;2023-03-17T05:15:38;4.50;;;2.43;;
9150;SDS011;4610;50.006;7.490;2023-03-17T05:18:05;6.03;;;2.57;;
9150;SDS011;4610;50.006;7.490;2023-03-17T05:20:32;4.10;;;2.20;;
9150;SDS011;4610;50.006;7.490;2023-03-17T05:22:59;5.10;;;2.47;;
9150;SDS011;4610;50.006;7.490;2023-03-17T05:25:25;3.27;;;2.27;;
9150;SDS011;4610;50.006;7.490;2023-03-17T05:27:52;2.87;;;2.03;;
9150;SDS011;4610;50.006;7.490;2023-03-17T05:30:20;2.70;;;2.10;;
9150;SDS011;4610;50.006;7.490;2023-03-17T05:32:47;3.53;;;2.50;;
9150;SDS011;4610;50.006;7.490;2023-03-17T05:35:14;7.30;;;2.27;;
9150;SDS011;4610;50.006;7.490;2023-03-17T05:37:41;4.50;;;2.73;;
9150;SDS011;4610;50.006;7.490;2023-03-17T05:40:08;3.47;;;2.20;;
9150;SDS011;4610;50.006;7.490;2023-03-17T05:42:36;2.63;;;1.93;;
9150;SDS011;4610;50.006;7.490;2023-03-17T05:45:03;3.23;;;2.50;;
9150;SDS011;4610;50.006;7.490;2023-03-17T05:47:32;3.37;;;2.70;;
9150;SDS011;4610;50.006;7.490;2023-03-17T05:50:00;4.23;;;2.43;;
9150;SDS011;4610;50.006;7.490;2023-03-17T05:52:28;3.80;;;2.70;;
9150;SDS011;4610;50.006;7.490;2023-03-17T05:54:56;6.57;;;2.77;;
9150;SDS011;4610;50.006;7.490;2023-03-17T05:57:23;5.07;;;2.30;;
9150;SDS011;4610;50.006;7.490;2023-03-17T05:59:50;5.00;;;2.63;;
9150;SDS011;4610;50.006;7.490;2023-03-17T06:02:16;3.97;;;2.70;;
9150;SDS011;4610;50.006;7.490;2023-03-17T06:04:45;2.87;;;2.23;;
9150;SDS011;4610;50.006;7.490;2023-03-17T06:07:11;3.80;;;2.10;;
9150;SDS011;4610;50.006;7.490;2023-03-17T06:09:38;3.40;;;2.30;;
9150;SDS011;4610;50.006;7.490;2023-03-17T06:12:06;3.47;;;2.50;;
9150;SDS011;4610;50.006;7.490;2023-03-17T06:14:33;3.60;;;2.90;;
9150;SDS011;4610;50.006;7.490;2023-03-17T06:17:00;4.27;;;2.73;;
9150;SDS011;4610;50.006;7.490;2023-03-17T06:19:27;4.90;;;2.77;;
9150;SDS011;4610;50.006;7.490;2023-03-17T06:21:55;4.20;;;2.30;;
9150;SDS011;4610;50.006;7.490;2023-03-17T06:24:22;2.43;;;2.00;;
9150;SDS011;4610;50.006;7.490;2023-03-17T06:26:48;2.37;;;1.70;;
9150;SDS011;4610;50.006;7.490;2023-03-17T06:29:17;3.23;;;2.10;;
9150;SDS011;4610;50.006;7.490;2023-03-17T06:31:44;3.50;;;2.20;;
9150;SDS011;4610;50.006;7.490;2023-03-17T06:34:14;3.57;;;2.20;;
9150;SDS011;4610;50.006;7.490;2023-03-17T06:36:41;3.07;;;1.90;;
9150;SDS011;4610;50.006;7.490;2023-03-17T06:39:10;4.00;;;2.63;;
9150;SDS011;4610;50.006;7.490;2023-03-17T06:41:38;4.47;;;2.83;;
9150;SDS011;4610;50.006;7.490;2023-03-17T06:44:05;7.87;;;3.90;;
9150;SDS011;4610;50.006;7.490;2023-03-17T06:46:32;13.33;;;6.30;;
9150;SDS011;4610;50.006;7.490;2023-03-17T06:48:59;12.50;;;7.50;;
9150;SDS011;4610;50.006;7.490;2023-03-17T06:51:27;12.67;;;6.80;;
9150;SDS011;4610;50.006;7.490;2023-03-17T06:53:54;8.13;;;4.10;;
9150;SDS011;4610;50.006;7.490;2023-03-17T06:56:22;9.93;;;3.40;;
9150;SDS011;4610;50.006;7.490;2023-03-17T06:58:49;5.40;;;3.53;;
9150;SDS011;4610;50.006;7.490;2023-03-17T07:01:16;10.07;;;4.87;;
9150;SDS011;4610;50.006;7.490;2023-03-17T07:03:43;19.20;;;10.20;;
9150;SDS011;4610;50.006;7.490;2023-03-17T07:06:10;38.10;;;19.50;;
9150;SDS011;4610;50.006;7.490;2023-03-17T07:08:37;58.93;;;29.53;;
9150;SDS011;4610;50.006;7.490;2023-03-17T07:11:05;38.60;;;21.10;;
9150;SDS011;4610;50.006;7.490;2023-03-17T07:13:34;49.67;;;25.63;;
9150;SDS011;4610;50.006;7.490;2023-03-17T07:16:02;50.40;;;25.93;;
9150;SDS011;4610;50.006;7.490;2023-03-17T07:18:31;49.67;;;26.47;;
9150;SDS011;4610;50.006;7.490;2023-03-17T07:20:57;21.80;;;10.67;;
9150;SDS011;4610;50.006;7.490;2023-03-17T07:23:26;30.60;;;15.23;;
9150;SDS011;4610;50.006;7.490;2023-03-17T07:25:54;24.60;;;13.00;;
9150;SDS011;4610;50.006;7.490;2023-03-17T07:28:22;15.57;;;8.63;;
9150;SDS011;4610;50.006;7.490;2023-03-17T07:30:50;19.27;;;11.53;;
9150;SDS011;4610;50.006;7.490;2023-03-17T07:33:18;17.57;;;10.87;;
9150;SDS011;4610;50.006;7.490;2023-03-17T07:35:45;16.00;;;9.07;;
9150;SDS011;4610;50.006;7.490;2023-03-17T07:38:12;11.37;;;6.97;;
9150;SDS011;4610;50.006;7.490;2023-03-17T07:40:40;8.50;;;5.00;;
9150;SDS011;4610;50.006;7.490;2023-03-17T07:43:07;7.67;;;5.00;;
9150;SDS011;4610;50.006;7.490;2023-03-17T07:45:35;8.53;;;4.27;;
9150;SDS011;4610;50.006;7.490;2023-03-17T07:48:03;4.90;;;3.50;;
9150;SDS011;4610;50.006;7.490;2023-03-17T07:50:31;4.77;;;3.30;;
9150;SDS011;4610;50.006;7.490;2023-03-17T07:52:58;5.83;;;3.37;;
9150;SDS011;4610;50.006;7.490;2023-03-17T07:55:25;5.13;;;3.60;;
9150;SDS011;4610;50.006;7.490;2023-03-17T07:57:52;7.67;;;4.13;;
9150;SDS011;4610;50.006;7.490;2023-03-17T08:00:19;7.73;;;4.37;;
9150;SDS011;4610;50.006;7.490;2023-03-17T08:02:47;6.07;;;3.87;;
9150;SDS011;4610;50.006;7.490;2023-03-17T08:05:16;5.37;;;4.00;;
9150;SDS011;4610;50.006;7.490;2023-03-17T08:07:43;7.83;;;4.03;;
9150;SDS011;4610;50.006;7.490;2023-03-17T08:10:10;5.43;;;3.30;;
9150;SDS011;4610;50.006;7.490;2023-03-17T08:12:38;6.07;;;3.40;;
9150;SDS011;4610;50.006;7.490;2023-03-17T08:15:05;7.20;;;3.87;;
9150;SDS011;4610;50.006;7.490;2023-03-17T08:17:33;7.57;;;3.70;;
9150;SDS011;4610;50.006;7.490;2023-03-17T08:20:03;7.00;;;2.90;;
9150;SDS011;4610;50.006;7.490;2023-03-17T08:22:32;5.73;;;3.50;;
9150;SDS011;4610;50.006;7.490;2023-03-17T08:24:59;5.80;;;3.67;;
9150;SDS011;4610;50.006;7.490;2023-03-17T08:27:26;6.67;;;2.77;;
9150;SDS011;4610;50.006;7.490;2023-03-17T08:29:53;7.17;;;3.57;;
9150;SDS011;4610;50.006;7.490;2023-03-17T08:32:21;6.00;;;2.73;;
9150;SDS011;4610;50.006;7.490;2023-03-17T08:34:51;4.30;;;2.70;;
9150;SDS011;4610;50.006;7.490;2023-03-17T08:37:18;3.30;;;2.20;;
9150;SDS011;4610;50.006;7.490;2023-03-17T08:39:47;3.83;;;2.70;;
9150;SDS011;4610;50.006;7.490;2023-03-17T08:42:14;3.73;;;2.70;;
9150;SDS011;4610;50.006;7.490;2023-03-17T08:44:41;5.30;;;2.63;;
9150;SDS011;4610;50.006;7.490;2023-03-17T08:47:08;5.33;;;2.27;;
9150;SDS011;4610;50.006;7.490;2023-03-17T08:49:34;6.97;;;2.90;;
9150;SDS011;4610;50.006;7.490;2023-03-17T08:52:02;3.73;;;2.50;;
9150;SDS011;4610;50.006;7.490;2023-03-17T08:54:29;4.23;;;2.90;;
9150;SDS011;4610;50.006;7.490;2023-03-17T08:56:58;5.03;;;3.00;;
9150;SDS011;4610;50.006;7.490;2023-03-17T08:59:25;8.37;;;2.80;;
9150;SDS011;4610;50.006;7.490;2023-03-17T09:01:52;2.90;;;2.40;;
9150;SDS011;4610;50.006;7.490;2023-03-17T09:04:19;6.10;;;2.80;;
9150;SDS011;4610;50.006;7.490;2023-03-17T09:06:47;5.20;;;2.70;;
9150;SDS011;4610;50.006;7.490;2023-03-17T09:09:14;3.50;;;2.40;;
9150;SDS011;4610;50.006;7.490;2023-03-17T09:11:41;2.73;;;2.30;;
9150;SDS011;4610;50.006;7.490;2023-03-17T09:14:09;2.57;;;2.10;;
9150;SDS011;4610;50.006;7.490;2023-03-17T09:16:36;3.67;;;2.60;;
9150;SDS011;4610;50.006;7.490;2023-03-17T09:19:03;4.63;;;2.10;;
9150;SDS011;4610;50.006;7.490;2023-03-17T09:21:30;5.07;;;2.10;;
9150;SDS011;4610;50.006;7.490;2023-03-17T09:23:57;6.03;;;2.47;;
9150;SDS011;4610;50.006;7.490;2023-03-17T09:26:24;6.17;;;2.10;;
9150;SDS011;4610;50.006;7.490;2023-03-17T09:28:51;6.07;;;2.40;;
9150;SDS011;4610;50.006;7.490;2023-03-17T09:31:19;3.77;;;2.13;;
9150;SDS011;4610;50.006;7.490;2023-03-17T09:33:46;2.90;;;2.27;;
9150;SDS011;4610;50.006;7.490;2023-03-17T09:36:13;8.80;;;2.30;;
9150;SDS011;4610;50.006;7.490;2023-03-17T09:38:39;3.50;;;2.00;;
9150;SDS011;4610;50.006;7.490;2023-03-17T09:41:22;2.90;;;1.90;;
9150;SDS011;4610;50.006;7.490;2023-03-17T09:44:08;4.80;;;2.00;;
9150;SDS011;4610;50.006;7.490;2023-03-17T09:46:46;5.57;;;2.20;;
9150;SDS011;4610;50.006;7.490;2023-03-17T09:49:19;4.80;;;2.37;;
9150;SDS011;4610;50.006;7.490;2023-03-17T09:51:51;5.27;;;2.50;;
9150;SDS011;4610;50.006;7.490;2023-03-17T09:54:22;3.40;;;2.00;;
9150;SDS011;4610;50.006;7.490;2023-03-17T09:56:53;4.57;;;2.37;;
9150;SDS011;4610;50.006;7.490;2023-03-17T09:59:29;4.40;;;2.20;;
9150;SDS011;4610;50.006;7.490;2023-03-17T10:01:59;4.37;;;2.10;;
9150;SDS011;4610;50.006;7.490;2023-03-17T10:04:26;5.30;;;2.40;;
9150;SDS011;4610;50.006;7.490;2023-03-17T10:06:56;3.67;;;2.37;;
9150;SDS011;4610;50.006;7.490;2023-03-17T10:09:30;4.43;;;2.13;;
9150;SDS011;4610;50.006;7.490;2023-03-17T10:12:02;3.80;;;1.80;;
9150;SDS011;4610;50.006;7.490;2023-03-17T10:14:39;4.60;;;2.00;;
9150;SDS011;4610;50.006;7.490;2023-03-17T10:17:14;2.53;;;1.90;;
9150;SDS011;4610;50.006;7.490;2023-03-17T10:19:44;4.83;;;2.40;;
9150;SDS011;4610;50.006;7.490;2023-03-17T10:22:18;3.43;;;2.30;;
9150;SDS011;4610;50.006;7.490;2023-03-17T10:24:48;4.03;;;2.40;;
9150;SDS011;4610;50.006;7.490;2023-03-17T10:27:17;4.07;;;2.07;;
9150;SDS011;4610;50.006;7.490;2023-03-17T10:29:44;2.80;;;1.93;;
9150;SDS011;4610;50.006;7.490;2023-03-17T10:32:12;3.47;;;2.20;;
9150;SDS011;4610;50.006;7.490;2023-03-17T10:34:41;3.27;;;2.00;;
9150;SDS011;4610;50.006;7.490;2023-03-17T10:37:11;3.83;;;2.13;;
9150;SDS011;4610;50.006;7.490;2023-03-17T10:39:44;2.90;;;2.20;;
9150;SDS011;4610;50.006;7.490;2023-03-17T10:42:18;6.47;;;2.40;;
9150;SDS011;4610;50.006;7.490;2023-03-17T10:44:48;5.20;;;2.17;;
9150;SDS011;4610;50.006;7.490;2023-03-17T10:47:28;5.73;;;2.20;;
9150;SDS011;4610;50.006;7.490;2023-03-17T10:49:57;2.60;;;1.87;;
9150;SDS011;4610;50.006;7.490;2023-03-17T10:52:29;3.33;;;2.03;;
9150;SDS011;4610;50.006;7.490;2023-03-17T10:55:00;3.27;;;1.97;;
9150;SDS011;4610;50.006;7.490;2023-03-17T10:57:29;3.20;;;1.97;;
9150;SDS011;4610;50.006;7.490;2023-03-17T10:59:56;6.50;;;2.90;;
9150;SDS011;4610;50.006;7.490;2023-03-17T11:02:28;3.43;;;2.20;;
9150;SDS011;4610;50.006;7.490;2023-03-17T11:05:04;5.90;;;1.80;;
9150;SDS011;4610;50.006;7.490;2023-03-17T11:07:34;2.50;;;1.90;;
9150;SDS011;4610;50.006;7.490;2023-03-17T11:10:03;4.17;;;2.10;;
9150;SDS011;4610;50.006;7.490;2023-03-17T11:12:45;7.03;;;1.73;;
9150;SDS011;4610;50.006;7.490;2023-03-17T11:15:15;2.63;;;2.07;;
9150;SDS011;4610;50.006;7.490;2023-03-17T11:17:47;3.80;;;1.83;;
9150;SDS011;4610;50.006;7.490;2023-03-17T11:20:20;5.00;;;2.07;;
9150;SDS011;4610;50.006;7.490;2023-03-17T11:23:05;3.97;;;1.87;;
9150;SDS011;4610;50.006;7.490;2023-03-17T11:25:37;3.13;;;1.90;;
9150;SDS011;4610;50.006;7.490;2023-03-17T11:28:11;3.47;;;1.80;;
9150;SDS011;4610;50.006;7.490;2023-03-17T11:30:46;4.93;;;2.00;;
9150;SDS011;4610;50.006;7.490;2023-03-17T11:33:27;3.07;;;1.70;;
9150;SDS011;4610;50.006;7.490;2023-03-17T11:36:00;2.20;;;1.70;;
9150;SDS011;4610;50.006;7.490;2023-03-17T11:38:35;5.60;;;1.63;;
9150;SDS011;4610;50.006;7.490;2023-03-17T11:44:19;5.03;;;1.80;;
9150;SDS011;4610;50.006;7.490;2023-03-17T11:47:07;6.40;;;1.80;;
9150;SDS011;4610;50.006;7.490;2023-03-17T11:49:49;2.83;;;1.83;;
9150;SDS011;4610;50.006;7.490;2023-03-17T11:52:22;3.40;;;1.87;;
9150;SDS011;4610;50.006;7.490;2023-03-17T11:54:54;11.40;;;2.23;;
9150;SDS011;4610;50.006;7.490;2023-03-17T11:57:26;2.87;;;1.70;;
9150;SDS011;4610;50.006;7.490;2023-03-17T11:59:57;5.70;;;2.10;;
9150;SDS011;4610;50.006;7.490;2023-03-17T12:02:30;5.70;;;2.00;;
9150;SDS011;4610;50.006;7.490;2023-03-17T12:05:05;5.47;;;2.00;;
9150;SDS011;4610;50.006;7.490;2023-03-17T12:07:35;5.27;;;1.93;;
9150;SDS011;4610;50.006;7.490;2023-03-17T12:10:09;4.33;;;2.10;;
9150;SDS011;4610;50.006;7.490;2023-03-17T12:12:43;4.63;;;1.90;;
9150;SDS011;4610;50.006;7.490;2023-03-17T12:15:14;2.37;;;1.80;;
9150;SDS011;4610;50.006;7.490;2023-03-17T12:17:48;5.80;;;2.23;;
9150;SDS011;4610;50.006;7.490;2023-03-17T12:20:20;3.47;;;1.90;;
9150;SDS011;4610;50.006;7.490;2023-03-17T12:22:55;3.43;;;1.60;;
9150;SDS011;4610;50.006;7.490;2023-03-17T12:25:29;4.97;;;1.77;;
9150;SDS011;4610;50.006;7.490;2023-03-17T12:27:58;5.60;;;2.27;;
9150;SDS011;4610;50.006;7.490;2023-03-17T12:30:30;3.07;;;1.90;;
9150;SDS011;4610;50.006;7.490;2023-03-17T12:33:05;4.23;;;1.80;;
9150;SDS011;4610;50.006;7.490;2023-03-17T12:35:39;2.47;;;1.40;;
9150;SDS011;4610;50.006;7.490;2023-03-17T12:38:07;2.37;;;1.67;;
9150;SDS011;4610;50.006;7.490;2023-03-17T12:40:40;3.50;;;1.70;;
9150;SDS011;4610;50.006;7.490;2023-03-17T12:43:30;2.47;;;1.63;;
9150;SDS011;4610;50.006;7.490;2023-03-17T12:46:06;3.70;;;1.60;;
9150;SDS011;4610;50.006;7.490;2023-03-17T12:51:56;4.53;;;1.40;;
9150;SDS011;4610;50.006;7.490;2023-03-17T12:54:31;5.20;;;1.50;;
9150;SDS011;4610;50.006;7.490;2023-03-17T12:57:01;2.77;;;1.63;;
9150;SDS011;4610;50.006;7.490;2023-03-17T12:59:31;2.90;;;1.80;;
9150;SDS011;4610;50.006;7.490;2023-03-17T13:02:04;6.40;;;1.70;;
9150;SDS011;4610;50.006;7.490;2023-03-17T13:04:45;2.97;;;1.60;;
9150;SDS011;4610;50.006;7.490;2023-03-17T13:07:16;4.73;;;1.73;;
9150;SDS011;4610;50.006;7.490;2023-03-17T13:09:46;4.53;;;1.90;;
9150;SDS011;4610;50.006;7.490;2023-03-17T13:12:34;2.97;;;1.60;;
9150;SDS011;4610;50.006;7.490;2023-03-17T13:18:21;2.67;;;1.50;;
9150;SDS011;4610;50.006;7.490;2023-03-17T13:21:07;5.30;;;1.87;;
9150;SDS011;4610;50.006;7.490;2023-03-17T13:23:40;4.67;;;1.70;;
9150;SDS011;4610;50.006;7.490;2023-03-17T13:26:10;2.77;;;1.43;;
9150;SDS011;4610;50.006;7.490;2023-03-17T13:28:44;7.60;;;1.80;;
9150;SDS011;4610;50.006;7.490;2023-03-17T13:31:13;2.00;;;1.47;;
9150;SDS011;4610;50.006;7.490;2023-03-17T13:33:57;9.00;;;2.10;;
9150;SDS011;4610;50.006;7.490;2023-03-17T13:36:36;9.40;;;1.63;;
9150;SDS011;4610;50.006;7.490;2023-03-17T13:42:18;9.13;;;1.80;;
9150;SDS011;4610;50.006;7.490;2023-03-17T13:47:50;8.07;;;1.83;;
9150;SDS011;4610;50.006;7.490;2023-03-17T13:50:20;4.53;;;1.60;;
9150;SDS011;4610;50.006;7.490;2023-03-17T13:52:52;4.43;;;1.83;;
9150;SDS011;4610;50.006;7.490;2023-03-17T13:55:28;3.77;;;1.87;;
9150;SDS011;4610;50.006;7.490;2023-03-17T14:00:47;2.53;;;1.63;;
9150;SDS011;4610;50.006;7.490;2023-03-17T14:03:25;3.23;;;1.30;;
9150;SDS011;4610;50.006;7.490;2023-03-17T14:05:56;4.03;;;1.40;;
9150;SDS011;4610;50.006;7.490;2023-03-17T14:08:26;4.00;;;1.80;;
9150;SDS011;4610;50.006;7.490;2023-03-17T14:10:56;6.07;;;1.53;;
9150;SDS011;4610;50.006;7.490;2023-03-17T14:13:26;2.73;;;1.43;;
9150;SDS011;4610;50.006;7.490;2023-03-17T14:15:57;2.27;;;1.30;;
9150;SDS011;4610;50.006;7.490;2023-03-17T14:18:28;17.87;;;1.83;;
9150;SDS011;4610;50.006;7.490;2023-03-17T14:20:58;2.33;;;1.50;;
9150;SDS011;4610;50.006;7.490;2023-03-17T14:23:29;5.17;;;1.47;;
9150;SDS011;4610;50.006;7.490;2023-03-17T14:25:57;2.10;;;1.50;;
9150;SDS011;4610;50.006;7.490;2023-03-17T14:28:26;4.47;;;1.53;;
9150;SDS011;4610;50.006;7.490;2023-03-17T14:30:57;2.20;;;1.40;;
9150;SDS011;4610;50.006;7.490;2023-03-17T14:33:26;5.57;;;1.70;;
9150;SDS011;4610;50.006;7.490;2023-03-17T14:35:55;3.07;;;1.30;;
9150;SDS011;4610;50.006;7.490;2023-03-17T14:38:23;4.77;;;1.57;;
9150;SDS011;4610;50.006;7.490;2023-03-17T14:40:58;4.50;;;1.57;;
9150;SDS011;4610;50.006;7.490;2023-03-17T14:43:27;8.13;;;1.57;;
9150;SDS011;4610;50.006;7.490;2023-03-17T14:45:58;6.23;;;1.53;;
9150;SDS011;4610;50.006;7.490;2023-03-17T14:48:27;5.70;;;1.13;;
9150;SDS011;4610;50.006;7.490;2023-03-17T14:50:59;3.33;;;1.40;;
9150;SDS011;4610;50.006;7.490;2023-03-17T14:53:29;5.17;;;1.20;;
9150;SDS011;4610;50.006;7.490;2023-03-17T14:55:56;3.70;;;1.53;;
9150;SDS011;4610;50.006;7.490;2023-03-17T14:58:26;3.67;;;1.20;;
9150;SDS011;4610;50.006;7.490;2023-03-17T15:01:02;3.93;;;1.30;;
9150;SDS011;4610;50.006;7.490;2023-03-17T15:03:30;6.10;;;1.70;;
9150;SDS011;4610;50.006;7.490;2023-03-17T15:06:03;4.83;;;1.20;;
9150;SDS011;4610;50.006;7.490;2023-03-17T15:08:43;2.33;;;1.23;;
9150;SDS011;4610;50.006;7.490;2023-03-17T15:11:17;3.50;;;1.30;;
9150;SDS011;4610;50.006;7.490;2023-03-17T15:13:48;3.50;;;1.70;;
9150;SDS011;4610;50.006;7.490;2023-03-17T15:16:18;2.40;;;1.43;;
9150;SDS011;4610;50.006;7.490;2023-03-17T15:18:47;1.70;;;1.30;;
9150;SDS011;4610;50.006;7.490;2023-03-17T15:21:26;3.87;;;1.50;;
9150;SDS011;4610;50.006;7.490;2023-03-17T15:23:54;7.00;;;1.70;;
9150;SDS011;4610;50.006;7.490;2023-03-17T15:26:23;1.90;;;1.30;;
9150;SDS011;4610;50.006;7.490;2023-03-17T15:28:57;2.13;;;1.20;;
9150;SDS011;4610;50.006;7.490;2023-03-17T15:31:25;5.03;;;1.40;;
9150;SDS011;4610;50.006;7.490;2023-03-17T15:33:54;2.83;;;1.50;;
9150;SDS011;4610;50.006;7.490;2023-03-17T15:36:21;2.57;;;1.50;;
9150;SDS011;4610;50.006;7.490;2023-03-17T15:38:48;3.27;;;1.40;;
9150;SDS011;4610;50.006;7.490;2023-03-17T15:41:15;3.73;;;1.40;;
9150;SDS011;4610;50.006;7.490;2023-03-17T15:43:42;4.90;;;1.43;;
9150;SDS011;4610;50.006;7.490;2023-03-17T15:46:13;2.47;;;1.27;;
9150;SDS011;4610;50.006;7.490;2023-03-17T15:48:45;2.13;;;1.33;;
9150;SDS011;4610;50.006;7.490;2023-03-17T15:51:12;1.83;;;1.27;;
9150;SDS011;4610;50.006;7.490;2023-03-17T15:53:40;2.27;;;1.17;;